Berwick, Ohio
Current Conditions -  °F | °C
As of 3:12 AM on Saturday 01 Nov 2014 (Local Time) from KFDY Reporting Station
Overcast Overcast  
Wind Chill: 25°   Ceiling: 1000
Heat Index: 35°   Visibility: 7mi
Dew Point: 32°   Wind: 17mph
Humidity: 89%   Direction: 350°N
Pressure: 30.06"   Gusts: 26mph
Location:  41.0558°N, 83.3049°W
Report Text: KFDY 010712Z AUTO 35015G23KT 7SM OVC010 02/00 A3006 RMK AO2 UPB0657E00SNE0657 P0000 T00170000
Loading
Personal Weather Stations






























Interactive Weather Map
Tropical Storm Tracking
New forecast layout! Learn more

10-Day Weather Forecast

Advertisements
Track Severe Weather on mobile